createdAt,value
2022-09-23T00:00:59.075Z,100.00
2022-09-23T00:03:25.712Z,100.00
2022-09-23T00:06:04.365Z,100.00
2022-09-23T00:08:31.470Z,100.00
2022-09-23T00:11:09.219Z,100.00
2022-09-23T00:13:36.487Z,100.00
2022-09-23T00:16:08.733Z,100.00
2022-09-23T00:18:35.127Z,100.00
2022-09-23T00:21:06.365Z,100.00
2022-09-23T00:23:33.275Z,100.00
2022-09-23T00:26:02.338Z,100.00
2022-09-23T00:28:29.676Z,100.00
2022-09-23T00:30:56.371Z,100.00
2022-09-23T00:33:22.992Z,100.00
2022-09-23T00:35:49.896Z,100.00
2022-09-23T00:38:17.099Z,100.00
2022-09-23T00:40:45.925Z,100.00
2022-09-23T00:43:14.729Z,100.00
2022-09-23T00:45:44.564Z,100.00
2022-09-23T00:48:15.514Z,100.00
2022-09-23T00:50:44.625Z,100.00
2022-09-23T00:53:12.721Z,100.00
2022-09-23T00:55:52.643Z,100.00
2022-09-23T00:58:23.647Z,100.00
2022-09-23T01:00:50.151Z,100.00
2022-09-23T01:03:16.565Z,100.00
2022-09-23T01:05:43.008Z,100.00
2022-09-23T01:08:10.487Z,100.00
2022-09-23T01:11:21.737Z,100.00
2022-09-23T01:14:03.362Z,100.00
2022-09-23T01:16:54.412Z,100.00
2022-09-23T01:19:36.179Z,100.00
2022-09-23T01:22:23.916Z,100.00
2022-09-23T01:25:05.542Z,100.00
2022-09-23T01:28:01.324Z,100.00
2022-09-23T01:30:40.337Z,100.00
2022-09-23T01:33:11.292Z,100.00
2022-09-23T01:36:03.108Z,100.00
2022-09-23T01:38:44.757Z,100.00
2022-09-23T01:41:32.819Z,100.00
2022-09-23T01:44:08.409Z,100.00
2022-09-23T01:46:37.763Z,100.00
2022-09-23T01:49:20.615Z,100.00
2022-09-23T01:51:51.272Z,100.00
2022-09-23T01:54:26.540Z,100.00
2022-09-23T01:57:03.066Z,100.00
2022-09-23T01:59:37.743Z,100.00
2022-09-23T02:02:15.339Z,100.00
2022-09-23T02:04:47.176Z,100.00
2022-09-23T02:08:03.128Z,100.00
2022-09-23T02:10:49.661Z,100.00
2022-09-23T02:13:29.936Z,100.00
2022-09-23T02:16:01.087Z,100.00
2022-09-23T02:18:32.113Z,100.00
2022-09-23T02:21:05.250Z,100.00
2022-09-23T02:24:00.427Z,100.00
2022-09-23T02:26:29.836Z,100.00
2022-09-23T02:29:26.792Z,100.00
2022-09-23T02:32:09.371Z,100.00
2022-09-23T02:34:45.838Z,100.00
2022-09-23T02:37:21.249Z,100.00
2022-09-23T02:40:11.748Z,100.00
2022-09-23T02:42:59.339Z,100.00
2022-09-23T02:45:25.772Z,100.00
2022-09-23T02:47:57.060Z,100.00
2022-09-23T02:50:24.211Z,100.00
2022-09-23T02:52:50.737Z,100.00
2022-09-23T02:55:18.025Z,100.00
2022-09-23T02:57:45.036Z,100.00
2022-09-23T03:00:12.396Z,100.00
2022-09-23T03:02:58.963Z,100.00
2022-09-23T03:05:30.077Z,100.00
2022-09-23T03:07:59.405Z,100.00
2022-09-23T03:10:31.996Z,100.00
2022-09-23T03:13:29.399Z,100.00
2022-09-23T03:16:24.027Z,100.00
2022-09-23T03:19:12.288Z,100.00
2022-09-23T03:21:47.041Z,100.00
2022-09-23T03:24:14.399Z,100.00
2022-09-23T03:26:44.381Z,100.00
2022-09-23T03:29:11.693Z,100.00
2022-09-23T03:31:40.061Z,100.00
2022-09-23T03:34:21.283Z,100.00
2022-09-23T03:36:53.609Z,100.00
2022-09-23T03:40:19.308Z,100.00
2022-09-23T03:42:48.853Z,100.00
2022-09-23T03:45:18.402Z,100.00
2022-09-23T03:47:45.380Z,100.00
2022-09-23T03:50:17.301Z,100.00
2022-09-23T03:52:44.075Z,100.00
2022-09-23T03:55:11.071Z,100.00
2022-09-23T03:57:38.086Z,100.00
2022-09-23T04:00:07.318Z,100.00
2022-09-23T04:02:34.151Z,100.00
2022-09-23T04:05:01.081Z,100.00
2022-09-23T04:07:27.626Z,100.00
2022-09-23T04:09:54.303Z,100.00
2022-09-23T04:12:20.726Z,100.00
2022-09-23T04:14:47.136Z,100.00
2022-09-23T04:17:13.914Z,100.00
2022-09-23T04:19:40.655Z,100.00
2022-09-23T04:22:08.747Z,100.00
2022-09-23T04:24:35.342Z,100.00
2022-09-23T04:27:01.866Z,100.00
2022-09-23T04:29:28.352Z,100.00
2022-09-23T04:31:54.925Z,100.00
2022-09-23T04:34:21.531Z,100.00
2022-09-23T04:36:49.564Z,100.00
2022-09-23T04:39:16.673Z,100.00
2022-09-23T04:41:43.953Z,100.00
2022-09-23T04:44:12.130Z,100.00
2022-09-23T04:46:39.146Z,100.00
2022-09-23T04:49:06.601Z,100.00
2022-09-23T04:51:33.446Z,100.00
2022-09-23T04:53:59.851Z,100.00
2022-09-23T04:56:28.360Z,100.00
2022-09-23T04:58:58.159Z,100.00
2022-09-23T05:01:29.433Z,100.00
2022-09-23T05:03:58.153Z,100.00
2022-09-23T05:06:25.268Z,100.00
2022-09-23T05:08:53.909Z,100.00
2022-09-23T05:11:21.090Z,100.00
2022-09-23T05:13:53.755Z,100.00
2022-09-23T05:16:22.941Z,100.00
2022-09-23T05:18:50.466Z,100.00
2022-09-23T05:21:18.918Z,100.00
2022-09-23T05:23:55.026Z,100.00
2022-09-23T05:26:23.152Z,100.00
2022-09-23T05:28:49.529Z,100.00
2022-09-23T05:31:21.034Z,100.00
2022-09-23T05:33:54.060Z,100.00
2022-09-23T05:36:24.059Z,100.00
2022-09-23T05:38:51.126Z,100.00
2022-09-23T05:41:19.117Z,100.00
2022-09-23T05:43:45.936Z,100.00
2022-09-23T05:46:27.927Z,100.00
2022-09-23T05:49:02.082Z,100.00
2022-09-23T05:51:31.188Z,100.00
2022-09-23T05:53:58.597Z,100.00
2022-09-23T05:56:26.690Z,100.00
2022-09-23T05:58:54.664Z,100.00
2022-09-23T06:01:26.503Z,100.00
2022-09-23T06:03:55.160Z,100.00
2022-09-23T06:06:27.709Z,100.00
2022-09-23T06:08:54.142Z,100.00
2022-09-23T06:11:21.802Z,100.00
2022-09-23T06:13:49.227Z,100.00
2022-09-23T06:16:16.483Z,100.00
2022-09-23T06:18:44.590Z,100.00
2022-09-23T06:21:15.808Z,100.00
2022-09-23T06:23:43.009Z,100.00
2022-09-23T06:26:11.491Z,100.00
2022-09-23T06:28:39.186Z,100.00
2022-09-23T06:31:13.375Z,100.00
2022-09-23T06:33:40.478Z,100.00
2022-09-23T06:36:07.719Z,100.00
2022-09-23T06:38:34.416Z,100.00
2022-09-23T06:41:01.921Z,100.00
2022-09-23T06:43:28.309Z,100.00
2022-09-23T06:45:56.140Z,100.00
2022-09-23T06:48:24.030Z,100.00
2022-09-23T06:50:51.585Z,100.00
2022-09-23T06:53:18.014Z,100.00
2022-09-23T06:55:44.440Z,100.00
2022-09-23T06:58:10.927Z,100.00
2022-09-23T07:00:37.536Z,100.00
2022-09-23T07:03:08.233Z,100.00
2022-09-23T07:05:35.327Z,100.00
2022-09-23T07:08:01.948Z,100.00
2022-09-23T07:10:29.065Z,100.00
2022-09-23T07:12:55.666Z,100.00
2022-09-23T07:15:22.157Z,100.00
2022-09-23T07:17:49.518Z,100.00
2022-09-23T07:20:17.877Z,100.00
2022-09-23T07:22:49.488Z,100.00
2022-09-23T07:25:15.990Z,100.00
2022-09-23T07:27:42.375Z,100.00
2022-09-23T07:30:17.343Z,100.00
2022-09-23T07:32:49.423Z,100.00
2022-09-23T07:35:16.769Z,100.00
2022-09-23T07:37:43.434Z,100.00
2022-09-23T07:40:09.917Z,100.00
2022-09-23T07:42:36.375Z,100.00
2022-09-23T07:45:02.750Z,100.00
2022-09-23T07:47:29.760Z,100.00
2022-09-23T07:49:56.126Z,100.00
2022-09-23T07:52:22.864Z,100.00
2022-09-23T07:54:49.257Z,100.00
2022-09-23T07:57:16.035Z,100.00
2022-09-23T07:59:43.058Z,100.00
2022-09-23T08:02:11.326Z,100.00
2022-09-23T08:04:38.370Z,100.00
2022-09-23T08:07:05.455Z,100.00
2022-09-23T08:09:35.008Z,100.00
2022-09-23T08:12:01.725Z,100.00
2022-09-23T08:14:28.154Z,100.00
2022-09-23T08:16:54.551Z,100.00
2022-09-23T08:19:21.058Z,100.00
2022-09-23T08:21:47.516Z,100.00
2022-09-23T08:24:16.811Z,100.00
2022-09-23T08:26:44.630Z,100.00
2022-09-23T08:29:16.723Z,100.00
2022-09-23T08:31:43.483Z,100.00
2022-09-23T08:34:10.524Z,100.00
2022-09-23T08:36:37.079Z,100.00
2022-09-23T08:39:04.186Z,100.00
2022-09-23T08:41:57.564Z,100.00
2022-09-23T08:44:50.716Z,100.00
2022-09-23T08:47:23.092Z,100.00
2022-09-23T08:50:04.080Z,100.00
2022-09-23T08:52:50.026Z,100.00
2022-09-23T08:55:17.466Z,100.00
2022-09-23T08:58:02.339Z,100.00
2022-09-23T09:00:40.814Z,100.00
2022-09-23T09:03:21.356Z,100.00
2022-09-23T09:05:54.164Z,100.00
2022-09-23T09:08:29.638Z,100.00
2022-09-23T09:10:58.110Z,100.00
2022-09-23T09:13:33.259Z,100.00
2022-09-23T09:16:09.710Z,100.00
2022-09-23T09:18:40.687Z,100.00
2022-09-23T09:21:16.101Z,100.00
2022-09-23T09:24:15.104Z,100.00
2022-09-23T09:26:41.823Z,100.00
2022-09-23T09:32:27.367Z,100.00
2022-09-23T09:34:58.018Z,100.00
2022-09-23T09:37:31.618Z,100.00
2022-09-23T09:39:58.287Z,100.00
2022-09-23T09:42:28.299Z,100.00
2022-09-23T09:45:01.179Z,100.00
2022-09-23T09:47:49.418Z,100.00
2022-09-23T09:50:22.104Z,100.00
2022-09-23T09:52:48.857Z,100.00
2022-09-23T09:55:27.002Z,100.00
2022-09-23T09:58:03.968Z,100.00
2022-09-23T10:00:30.292Z,100.00
2022-09-23T10:03:23.061Z,100.00
2022-09-23T10:05:52.154Z,100.00
2022-09-23T10:08:18.469Z,100.00
2022-09-23T10:11:15.133Z,100.00
2022-09-23T10:13:42.684Z,100.00
2022-09-23T10:16:09.385Z,100.00
2022-09-23T10:18:47.960Z,100.00
2022-09-23T10:21:16.501Z,100.00
2022-09-23T10:23:55.031Z,100.00
2022-09-23T10:26:33.360Z,94.21
2022-09-23T10:29:24.748Z,100.00
2022-09-23T10:32:26.058Z,93.14
2022-09-23T10:34:56.987Z,92.54
2022-09-23T10:37:29.358Z,88.56
2022-09-23T10:40:14.457Z,91.21
2022-09-23T10:43:16.729Z,78.35
2022-09-23T10:46:07.373Z,84.93
2022-09-23T10:48:48.103Z,85.82
2022-09-23T10:51:26.163Z,77.69
2022-09-23T10:54:22.272Z,79.31
2022-09-23T10:56:53.831Z,78.34
2022-09-23T10:59:43.592Z,79.79
2022-09-23T11:02:31.181Z,74.11
2022-09-23T11:05:28.364Z,72.58
2022-09-23T11:08:19.672Z,72.33
2022-09-23T11:11:00.576Z,70.31
2022-09-23T11:13:27.026Z,72.54
2022-09-23T11:16:13.634Z,66.64
2022-09-23T11:19:08.292Z,64.87
2022-09-23T11:22:04.429Z,69.61
2022-09-23T11:24:50.054Z,61.32
2022-09-23T11:27:26.911Z,61.88
2022-09-23T11:30:07.168Z,59.97
2022-09-23T11:33:14.128Z,61.88
2022-09-23T11:35:50.441Z,60.69
2022-09-23T11:38:24.887Z,62.70
2022-09-23T11:40:55.755Z,61.19
2022-09-23T11:43:29.097Z,65.87
2022-09-23T11:46:04.398Z,67.04
2022-09-23T11:48:37.018Z,68.57
2022-09-23T11:51:07.620Z,68.06
2022-09-23T11:53:44.664Z,65.66
2022-09-23T11:56:34.829Z,67.43
2022-09-23T11:59:36.441Z,72.73
2022-09-23T12:02:35.898Z,65.32
2022-09-23T12:05:09.557Z,70.58
2022-09-23T12:08:11.151Z,68.85
2022-09-23T12:10:42.582Z,65.81
2022-09-23T12:13:44.428Z,65.21
2022-09-23T12:16:21.598Z,61.45
2022-09-23T12:18:55.334Z,60.56
2022-09-23T12:21:49.774Z,58.14
2022-09-23T12:24:38.908Z,62.46
2022-09-23T12:27:10.880Z,61.83
2022-09-23T12:29:39.826Z,62.45
2022-09-23T12:32:09.809Z,62.04
2022-09-23T12:34:48.043Z,63.47
2022-09-23T12:37:23.527Z,66.94
2022-09-23T12:39:50.085Z,73.32
2022-09-23T12:42:18.674Z,65.95
2022-09-23T12:44:47.403Z,62.44
2022-09-23T12:47:25.833Z,63.70
2022-09-23T12:49:56.444Z,69.20
2022-09-23T12:52:31.404Z,73.72
2022-09-23T12:55:10.034Z,62.93
2022-09-23T12:57:37.181Z,69.15
2022-09-23T13:00:13.355Z,66.15
2022-09-23T13:03:11.452Z,63.08
2022-09-23T13:06:17.290Z,63.40
2022-09-23T13:08:45.316Z,63.28
2022-09-23T13:11:22.877Z,60.42
2022-09-23T13:13:50.064Z,65.53
2022-09-23T13:16:25.115Z,62.09
2022-09-23T13:19:27.028Z,61.56
2022-09-23T13:21:53.313Z,63.09
2022-09-23T13:24:22.620Z,64.63
2022-09-23T13:26:51.597Z,60.94
2022-09-23T13:29:40.426Z,63.69
2022-09-23T13:32:11.882Z,62.64
2022-09-23T13:34:39.823Z,66.47
2022-09-23T13:37:26.534Z,71.70
2022-09-23T13:39:52.942Z,63.86
2022-09-23T13:42:27.136Z,66.56
2022-09-23T13:44:57.462Z,62.16
2022-09-23T13:47:29.129Z,64.87
2022-09-23T13:49:55.853Z,60.45
2022-09-23T13:52:30.003Z,60.43
2022-09-23T13:54:57.047Z,58.11
2022-09-23T13:57:27.653Z,59.54
2022-09-23T13:59:54.097Z,60.52
2022-09-23T14:02:20.637Z,63.35
2022-09-23T14:04:47.123Z,63.76
2022-09-23T14:07:15.425Z,68.13
2022-09-23T14:09:44.193Z,65.08
2022-09-23T14:12:10.925Z,68.59
2022-09-23T14:14:39.525Z,61.37
2022-09-23T14:17:07.708Z,59.33
2022-09-23T14:19:36.006Z,61.53
2022-09-23T14:22:03.022Z,61.36
2022-09-23T14:24:29.368Z,62.05
2022-09-23T14:26:57.700Z,64.21
2022-09-23T14:29:30.866Z,63.46
2022-09-23T14:32:00.559Z,64.16
2022-09-23T14:34:40.428Z,66.79
2022-09-23T14:37:37.394Z,72.23
2022-09-23T14:40:08.683Z,71.47
2022-09-23T14:42:41.018Z,76.75
2022-09-23T14:45:14.157Z,82.54
2022-09-23T14:47:44.353Z,80.05
2022-09-23T14:50:38.445Z,81.31
2022-09-23T14:53:33.577Z,80.61
2022-09-23T14:56:05.687Z,81.39
2022-09-23T14:58:42.519Z,81.17
2022-09-23T15:01:31.067Z,83.04
2022-09-23T15:03:58.626Z,81.35
2022-09-23T15:06:25.430Z,82.91
2022-09-23T15:08:52.764Z,82.60
2022-09-23T15:11:19.517Z,84.49
2022-09-23T15:13:51.347Z,82.10
2022-09-23T15:16:31.287Z,83.16
2022-09-23T15:18:59.941Z,85.02
2022-09-23T15:21:34.449Z,85.93
2022-09-23T15:24:01.002Z,85.74
2022-09-23T15:26:48.961Z,87.26
2022-09-23T15:29:15.950Z,89.44
2022-09-23T15:31:42.629Z,89.41
2022-09-23T15:34:10.511Z,89.90
2022-09-23T15:36:38.437Z,87.52
2022-09-23T15:39:12.675Z,89.29
2022-09-23T15:41:39.352Z,87.57
2022-09-23T15:44:13.530Z,88.07
2022-09-23T15:46:45.687Z,84.35
2022-09-23T15:49:47.044Z,84.38
2022-09-23T15:52:16.246Z,88.57
2022-09-23T15:54:43.711Z,82.41
2022-09-23T15:57:11.238Z,83.35
2022-09-23T15:59:38.183Z,83.63
2022-09-23T16:02:18.092Z,81.03
2022-09-23T16:04:47.171Z,83.12
2022-09-23T16:07:16.916Z,92.27
2022-09-23T16:09:43.286Z,86.74
2022-09-23T16:12:11.831Z,84.81
2022-09-23T16:14:38.234Z,93.07
2022-09-23T16:17:05.004Z,90.29
2022-09-23T16:19:34.304Z,91.42
2022-09-23T16:22:01.048Z,100.00
2022-09-23T16:24:28.419Z,100.00
2022-09-23T16:26:59.727Z,100.00
2022-09-23T16:29:27.440Z,100.00
2022-09-23T16:31:54.002Z,100.00
2022-09-23T16:34:20.584Z,100.00
2022-09-23T16:36:47.060Z,100.00
2022-09-23T16:39:13.896Z,100.00
2022-09-23T16:41:42.916Z,100.00
2022-09-23T16:44:12.208Z,100.00
2022-09-23T16:46:40.260Z,100.00
2022-09-23T16:49:06.847Z,100.00
2022-09-23T16:51:38.001Z,100.00
2022-09-23T16:54:10.537Z,100.00
2022-09-23T16:56:38.985Z,100.00
2022-09-23T16:59:05.847Z,100.00
2022-09-23T17:01:51.058Z,100.00
2022-09-23T17:04:19.275Z,100.00
2022-09-23T17:06:50.399Z,100.00
2022-09-23T17:09:18.826Z,100.00
2022-09-23T17:11:47.709Z,100.00
2022-09-23T17:14:15.312Z,100.00
2022-09-23T17:16:42.132Z,100.00
2022-09-23T17:19:10.215Z,100.00
2022-09-23T17:21:36.796Z,100.00
2022-09-23T17:24:03.733Z,100.00
2022-09-23T17:26:30.317Z,100.00
2022-09-23T17:28:58.631Z,100.00
2022-09-23T17:31:25.214Z,100.00
2022-09-23T17:33:52.584Z,100.00
2022-09-23T17:36:19.898Z,100.00
2022-09-23T17:38:48.180Z,100.00
2022-09-23T17:41:15.717Z,100.00
2022-09-23T17:43:46.583Z,100.00
2022-09-23T17:46:18.280Z,100.00
2022-09-23T17:48:45.259Z,100.00
2022-09-23T17:51:14.419Z,100.00
2022-09-23T17:53:45.663Z,100.00
2022-09-23T17:56:19.911Z,100.00
2022-09-23T17:58:47.681Z,100.00
2022-09-23T18:01:17.467Z,100.00
2022-09-23T18:03:44.083Z,100.00
2022-09-23T18:06:21.463Z,100.00
2022-09-23T18:08:49.403Z,100.00
2022-09-23T18:11:27.399Z,100.00
2022-09-23T18:13:55.853Z,100.00
2022-09-23T18:16:24.913Z,100.00
2022-09-23T18:18:56.822Z,100.00
2022-09-23T18:21:25.411Z,100.00
2022-09-23T18:23:51.864Z,100.00
2022-09-23T18:26:20.074Z,100.00
2022-09-23T18:28:47.826Z,100.00
2022-09-23T18:31:15.074Z,100.00
2022-09-23T18:33:41.890Z,100.00
2022-09-23T18:36:08.815Z,100.00
2022-09-23T18:38:35.430Z,100.00
2022-09-23T18:41:01.937Z,100.00
2022-09-23T18:43:38.988Z,100.00
2022-09-23T18:46:11.533Z,100.00
2022-09-23T18:48:56.486Z,100.00
2022-09-23T18:51:28.684Z,100.00
2022-09-23T18:54:00.022Z,100.00
2022-09-23T18:56:29.605Z,100.00
2022-09-23T18:58:56.328Z,100.00
2022-09-23T19:01:23.730Z,100.00
2022-09-23T19:04:01.862Z,100.00
2022-09-23T19:06:28.988Z,100.00
2022-09-23T19:08:55.859Z,100.00
2022-09-23T19:11:22.831Z,100.00
2022-09-23T19:13:57.570Z,100.00
2022-09-23T19:16:24.915Z,100.00
2022-09-23T19:18:56.704Z,100.00
2022-09-23T19:21:24.082Z,100.00
2022-09-23T19:23:53.050Z,100.00
2022-09-23T19:26:26.343Z,100.00
2022-09-23T19:29:06.832Z,100.00
2022-09-23T19:31:35.623Z,100.00
2022-09-23T19:34:06.238Z,100.00
2022-09-23T19:36:34.572Z,100.00
2022-09-23T19:39:03.509Z,100.00
2022-09-23T19:41:41.005Z,100.00
2022-09-23T19:44:07.838Z,100.00
2022-09-23T19:46:49.665Z,100.00
2022-09-23T19:49:18.757Z,100.00
2022-09-23T19:51:46.845Z,100.00
2022-09-23T19:54:20.856Z,100.00
2022-09-23T19:56:50.838Z,100.00
2022-09-23T19:59:19.703Z,100.00
2022-09-23T20:01:47.887Z,100.00
2022-09-23T20:04:15.767Z,100.00
2022-09-23T20:06:42.728Z,100.00
2022-09-23T20:09:09.274Z,100.00
2022-09-23T20:11:35.837Z,100.00
2022-09-23T20:14:03.858Z,100.00
2022-09-23T20:16:33.142Z,100.00
2022-09-23T20:19:00.768Z,100.00
2022-09-23T20:21:28.426Z,100.00
2022-09-23T20:23:55.368Z,100.00
2022-09-23T20:26:46.668Z,100.00
2022-09-23T20:29:13.187Z,100.00
2022-09-23T20:31:41.413Z,100.00
2022-09-23T20:34:08.364Z,100.00
2022-09-23T20:36:36.214Z,100.00
2022-09-23T20:39:07.682Z,100.00
2022-09-23T20:41:39.387Z,100.00
2022-09-23T20:44:09.368Z,100.00
2022-09-23T20:46:36.009Z,100.00
2022-09-23T20:49:03.735Z,100.00
2022-09-23T20:51:33.022Z,100.00
2022-09-23T20:53:59.863Z,100.00
2022-09-23T20:56:27.586Z,100.00
2022-09-23T20:58:54.969Z,100.00
2022-09-23T21:01:22.201Z,100.00
2022-09-23T21:03:50.356Z,100.00
2022-09-23T21:06:19.061Z,100.00
2022-09-23T21:08:46.312Z,100.00
2022-09-23T21:11:15.017Z,100.00
2022-09-23T21:13:49.244Z,100.00
2022-09-23T21:16:17.344Z,100.00
2022-09-23T21:18:44.993Z,100.00
2022-09-23T21:21:14.310Z,100.00
2022-09-23T21:23:42.654Z,100.00
2022-09-23T21:26:14.777Z,100.00
2022-09-23T21:28:43.733Z,100.00
2022-09-23T21:31:22.564Z,100.00
2022-09-23T21:33:59.478Z,100.00
2022-09-23T21:36:28.171Z,100.00
2022-09-23T21:38:58.892Z,100.00
2022-09-23T21:41:25.820Z,100.00
2022-09-23T21:43:52.656Z,100.00
2022-09-23T21:46:22.925Z,100.00
2022-09-23T21:48:54.041Z,100.00
2022-09-23T21:51:26.039Z,100.00
2022-09-23T21:53:57.494Z,100.00
2022-09-23T21:56:26.451Z,100.00
2022-09-23T21:58:54.314Z,100.00
2022-09-23T22:01:30.702Z,100.00
2022-09-23T22:03:59.628Z,100.00
2022-09-23T22:06:27.854Z,100.00
2022-09-23T22:08:59.867Z,100.00
2022-09-23T22:11:51.595Z,100.00
2022-09-23T22:14:19.665Z,100.00
2022-09-23T22:16:47.550Z,100.00
2022-09-23T22:19:15.500Z,100.00
2022-09-23T22:21:45.588Z,100.00
2022-09-23T22:24:12.897Z,100.00
2022-09-23T22:26:44.059Z,100.00
2022-09-23T22:29:31.107Z,100.00
2022-09-23T22:32:16.701Z,100.00
2022-09-23T22:34:51.572Z,100.00
2022-09-23T22:37:30.254Z,100.00
2022-09-23T22:39:56.743Z,100.00
2022-09-23T22:42:23.156Z,100.00
2022-09-23T22:44:50.333Z,100.00
2022-09-23T22:47:20.181Z,100.00
2022-09-23T22:49:46.983Z,100.00
2022-09-23T22:52:15.799Z,100.00
2022-09-23T22:54:42.201Z,100.00
2022-09-23T22:57:09.238Z,100.00
2022-09-23T22:59:37.395Z,100.00
2022-09-23T23:02:05.332Z,100.00
2022-09-23T23:04:31.931Z,100.00
2022-09-23T23:07:03.171Z,100.00
2022-09-23T23:09:29.616Z,100.00
2022-09-23T23:11:55.983Z,100.00
2022-09-23T23:14:22.347Z,100.00
2022-09-23T23:16:49.517Z,100.00
2022-09-23T23:19:17.257Z,100.00
2022-09-23T23:21:45.065Z,100.00
2022-09-23T23:24:16.942Z,100.00
2022-09-23T23:26:43.862Z,100.00
2022-09-23T23:29:12.709Z,100.00
2022-09-23T23:31:39.496Z,100.00
2022-09-23T23:34:08.240Z,100.00
2022-09-23T23:36:34.739Z,100.00
2022-09-23T23:39:01.266Z,100.00
2022-09-23T23:41:28.271Z,100.00
2022-09-23T23:43:56.848Z,100.00
2022-09-23T23:46:25.341Z,100.00
2022-09-23T23:48:52.431Z,100.00
2022-09-23T23:51:19.349Z,100.00
2022-09-23T23:53:45.871Z,100.00
2022-09-23T23:56:18.961Z,100.00
2022-09-23T23:58:46.127Z,100.00
